Allen, Michigan
Current Conditions -  °F | °C
As of 8:55 AM on Saturday 25 Oct 2014 (Local Time) from KJYM Reporting Station
Haze Haze  
Wind Chill: 13°   Ceiling: 1000
Heat Index: 13°   Visibility: 4mi
Dew Point: 12°   Wind: 8mph
Humidity: 96%   Direction: 260°W
Pressure: 29.87"   Gusts: NA
Location:  41.96°N, 84.77°W
Report Text: KJYM 251255Z AUTO 26007KT 4SM BR BKN010 BKN018 13/12 A2987 RMK AO2 T01310124
Loading
Personal Weather Stations






























Interactive Weather Map
Tropical Storm Tracking
New forecast layout! Learn more

10-Day Weather Forecast

Advertisements
Track Severe Weather on mobile